Time;durP1;ratioP1;P1;durP2;ratioP2;P2;SDS_P1;SDS_P2;PMS_P1;PMS_P2;Temp;Humidity;BMP_temperature;BMP_pressure;BME280_temperature;BME280_humidity;BME280_pressure;Samples;Min_cycle;Max_cycle;Signal;HPM_P1;HPM_P2
2021/12/08 00:04:07;;;;;;;4.35;3.30;;;;;;;3.17;100.00;99627.00;10541486;28;20051;-57
2021/12/08 00:09:35;;;;;;;15.38;3.90;;;;;;;3.13;100.00;99613.38;10541138;28;20048;-58
2021/12/08 00:14:38;;;;;;;8.95;4.03;;;;;;;3.17;100.00;99627.00;10539745;28;20377;-59
2021/12/08 00:19:40;;;;;;;9.27;3.70;;;;;;;3.15;100.00;99627.06;10541011;28;20056;-55
2021/12/08 00:24:44;;;;;;;7.47;4.18;;;;;;;3.21;100.00;99615.63;10539666;28;20044;-55
2021/12/08 00:29:46;;;;;;;10.52;3.97;;;;;;;3.21;100.00;99618.19;10540738;28;20138;-54
2021/12/08 00:34:49;;;;;;;12.40;4.95;;;;;;;3.21;100.00;99592.34;10539568;28;20044;-51
2021/12/08 00:39:52;;;;;;;6.47;4.80;;;;;;;3.24;100.00;99604.28;10540435;28;20051;-55
2021/12/08 00:44:54;;;;;;;9.55;4.95;;;;;;;3.13;100.00;99602.19;10539702;28;20044;-58
2021/12/08 00:49:57;;;;;;;11.80;5.20;;;;;;;3.17;100.00;99601.13;10539720;28;20514;-59
2021/12/08 00:55:00;;;;;;;7.72;4.60;;;;;;;3.28;100.00;99603.25;10539714;28;20048;-58
2021/12/08 01:00:16;;;;;;;9.68;4.10;;;;;;;3.37;100.00;99618.31;10539255;28;20048;-51
2021/12/08 01:05:22;;;;;;;7.45;3.97;;;;;;;3.33;100.00;99607.28;10539477;28;20052;-54
2021/12/08 01:10:27;;;;;;;11.77;4.97;;;;;;;3.28;100.00;99614.41;10538276;28;20050;-54
2021/12/08 01:15:45;;;;;;;6.50;4.35;;;;;;;3.30;100.00;99607.41;10539633;28;20055;-57
2021/12/08 01:20:48;;;;;;;7.30;4.95;;;;;;;3.49;100.00;99633.25;10539152;28;20047;-56
2021/12/08 01:25:51;;;;;;;6.82;5.05;;;;;;;3.44;100.00;99616.28;10539311;28;20408;-55
2021/12/08 01:30:55;;;;;;;10.77;5.82;;;;;;;3.48;100.00;99634.19;10538598;28;20510;-52
2021/12/08 01:35:58;;;;;;;6.68;4.45;;;;;;;3.54;100.00;99623.53;10541657;28;20512;-56
2021/12/08 01:41:01;;;;;;;7.93;3.92;;;;;;;3.66;100.00;99636.81;10546699;28;20050;-52
2021/12/08 01:46:06;;;;;;;8.00;4.47;;;;;;;3.67;100.00;99638.50;10546311;28;20040;-57
2021/12/08 01:51:15;;;;;;;7.38;4.30;;;;;;;3.70;100.00;99646.97;10546660;28;20047;-55
2021/12/08 01:56:25;;;;;;;7.03;3.97;;;;;;;3.87;100.00;99659.09;10546849;28;20044;-57
2021/12/08 02:01:31;;;;;;;10.52;4.43;;;;;;;3.77;100.00;99646.69;10546331;28;20050;-56
2021/12/08 02:06:40;;;;;;;5.57;3.75;;;;;;;3.99;100.00;99656.84;10545681;28;20548;-56
2021/12/08 02:11:46;;;;;;;8.55;4.70;;;;;;;3.91;100.00;99649.44;10546063;28;20059;-57
2021/12/08 02:16:52;;;;;;;6.82;4.30;;;;;;;3.96;100.00;99647.47;10545307;28;20047;-57
2021/12/08 02:21:54;;;;;;;4.95;3.45;;;;;;;4.03;100.00;99651.41;10545331;28;20056;-56
2021/12/08 02:26:58;;;;;;;4.55;3.00;;;;;;;4.00;100.00;99655.91;10545046;28;20047;-55
2021/12/08 02:32:13;;;;;;;7.13;4.13;;;;;;;4.08;100.00;99656.38;10544733;28;20054;-57
2021/12/08 02:47:58;;;;;;;10.73;5.07;;;;;;;4.33;100.00;99689.69;10543677;28;20051;-54
2021/12/08 02:53:00;;;;;;;5.68;4.13;;;;;;;4.27;100.00;99692.63;10543801;28;20056;-53
2021/12/08 02:58:04;;;;;;;5.68;4.53;;;;;;;4.34;100.00;99695.72;10542504;28;20044;-55
2021/12/08 03:03:06;;;;;;;9.82;4.50;;;;;;;4.36;100.00;99702.50;10543068;28;20044;-55
2021/12/08 03:08:10;;;;;;;6.03;4.40;;;;;;;4.30;100.00;99700.22;10543473;28;20048;-55
2021/12/08 03:13:13;;;;;;;9.52;4.88;;;;;;;4.28;100.00;99689.91;10543132;28;20054;-57
2021/12/08 03:18:15;;;;;;;6.40;4.05;;;;;;;4.14;100.00;99688.94;10543173;28;20074;-53
2021/12/08 03:23:23;;;;;;;7.47;4.03;;;;;;;4.12;100.00;99690.75;10542721;28;20044;-58
2021/12/08 03:28:31;;;;;;;5.35;3.22;;;;;;;4.33;100.00;99700.06;10543210;28;20040;-57
2021/12/08 03:33:34;;;;;;;8.38;2.63;;;;;;;4.53;100.00;99719.00;10542953;28;20062;-57
2021/12/08 03:38:39;;;;;;;7.75;4.18;;;;;;;4.53;100.00;99708.63;10542206;28;20063;-58
2021/12/08 03:43:41;;;;;;;7.15;3.55;;;;;;;4.50;100.00;99721.72;10541792;28;20051;-56
2021/12/08 03:48:49;;;;;;;11.75;4.00;;;;;;;4.38;100.00;99724.00;10541462;28;20509;-56
2021/12/08 03:53:52;;;;;;;15.23;5.43;;;;;;;4.47;100.00;99720.13;10541680;28;20059;-56
2021/12/08 03:58:54;;;;;;;6.80;3.30;;;;;;;4.40;100.00;99719.56;10540748;28;20048;-59
2021/12/08 04:04:02;;;;;;;6.28;3.00;;;;;;;4.60;100.00;99723.78;10540302;28;20044;-56
2021/12/08 04:09:05;;;;;;;8.90;3.45;;;;;;;4.75;100.00;99729.97;10541283;28;20043;-58
2021/12/08 04:14:10;;;;;;;5.82;2.80;;;;;;;4.75;100.00;99739.50;10540548;28;20400;-56
2021/12/08 04:19:13;;;;;;;6.63;3.13;;;;;;;4.67;100.00;99741.63;10541065;28;20048;-56
2021/12/08 04:24:16;;;;;;;5.60;2.40;;;;;;;4.63;100.00;99746.97;10540255;28;20476;-56
2021/12/08 04:29:22;;;;;;;5.70;2.63;;;;;;;4.47;100.00;99739.13;10540174;28;20369;-57
2021/12/08 04:34:29;;;;;;;4.80;2.72;;;;;;;4.45;100.00;99740.97;10538864;28;20048;-54
2021/12/08 04:39:56;;;;;;;5.97;2.38;;;;;;;4.59;100.00;99749.78;10540075;28;20110;-58
2021/12/08 04:45:07;;;;;;;6.80;2.63;;;;;;;4.44;100.00;99760.00;10539792;28;20055;-56
2021/12/08 04:50:36;;;;;;;9.47;2.83;;;;;;;4.43;100.00;99763.50;10540422;28;20048;-56
2021/12/08 05:11:32;;;;;;;11.45;3.28;;;;;;;4.08;100.00;99745.31;10546509;28;20067;-53
2021/12/08 05:16:36;;;;;;;6.75;3.75;;;;;;;3.82;100.00;99737.94;10548293;28;20044;-55
2021/12/08 05:21:59;;;;;;;6.38;2.78;;;;;;;3.69;100.00;99751.41;10547421;28;20055;-57
2021/12/08 05:27:29;;;;;;;7.85;2.65;;;;;;;3.79;100.00;99775.13;10546781;28;20044;-56
2021/12/08 05:32:32;;;;;;;5.70;2.22;;;;;;;3.91;100.00;99766.78;10547204;28;20052;-56
2021/12/08 05:37:34;;;;;;;10.20;2.65;;;;;;;3.82;100.00;99780.19;10546157;28;20085;-57
2021/12/08 05:42:37;;;;;;;5.28;1.42;;;;;;;3.96;100.00;99765.75;10546721;28;20040;-54
2021/12/08 05:47:40;;;;;;;10.82;1.80;;;;;;;3.76;100.00;99770.09;10546585;28;20048;-57
2021/12/08 05:52:43;;;;;;;9.13;2.58;;;;;;;3.78;100.00;99785.56;10546363;28;20048;-59
2021/12/08 05:57:46;;;;;;;4.82;1.40;;;;;;;4.04;100.00;99790.38;10546066;28;20093;-57
2021/12/08 06:02:48;;;;;;;4.32;1.73;;;;;;;3.89;100.00;99786.75;10546408;28;20050;-57
2021/12/08 06:07:51;;;;;;;6.40;1.67;;;;;;;4.09;100.00;99797.94;10545899;28;20083;-58
2021/12/08 06:12:54;;;;;;;9.25;1.90;;;;;;;3.94;100.00;99801.25;10545034;28;20054;-56
2021/12/08 06:17:56;;;;;;;6.65;1.70;;;;;;;3.95;100.00;99798.59;10545735;28;20067;-58
2021/12/08 06:23:00;;;;;;;6.38;1.70;;;;;;;4.05;100.00;99802.44;10544038;28;20060;-56
2021/12/08 06:28:03;;;;;;;11.90;1.60;;;;;;;4.17;100.00;99806.22;10544868;28;20488;-54
2021/12/08 06:33:05;;;;;;;8.13;2.10;;;;;;;3.92;100.00;99819.44;10544719;28;20048;-56
2021/12/08 06:38:09;;;;;;;9.13;1.95;;;;;;;4.03;100.00;99819.78;10544003;28;20044;-58
2021/12/08 06:43:20;;;;;;;2.85;1.73;;;;;;;4.11;100.00;99822.03;10544215;28;20086;-56
2021/12/08 06:48:26;;;;;;;10.77;1.92;;;;;;;4.05;100.00;99830.94;10543770;28;20055;-58
2021/12/08 06:53:30;;;;;;;8.98;2.50;;;;;;;4.24;100.00;99840.44;10543766;28;20503;-56
2021/12/08 06:58:38;;;;;;;10.00;2.25;;;;;;;4.08;100.00;99841.16;10543696;28;20404;-54
2021/12/08 07:09:25;;;;;;;11.38;2.20;;;;;;;4.01;100.00;99836.31;10543846;28;20044;-57
2021/12/08 07:14:29;;;;;;;8.00;1.92;;;;;;;3.95;100.00;99823.63;10542915;28;20056;-56
2021/12/08 07:19:43;;;;;;;4.85;1.83;;;;;;;3.91;100.00;99841.91;10542801;28;20400;-56
2021/12/08 07:24:48;;;;;;;10.98;2.67;;;;;;;3.76;100.00;99852.13;10542808;28;20048;-56
2021/12/08 07:29:51;;;;;;;11.27;2.22;;;;;;;3.95;100.00;99865.94;10542784;28;20060;-57
2021/12/08 07:34:55;;;;;;;11.63;2.75;;;;;;;3.79;100.00;99867.53;10542122;28;20040;-55
2021/12/08 07:40:03;;;;;;;6.43;2.25;;;;;;;3.86;100.00;99889.63;10541760;28;20048;-57
2021/12/08 07:45:10;;;;;;;7.65;2.95;;;;;;;3.94;100.00;99886.72;10542302;28;20051;-54
2021/12/08 07:50:27;;;;;;;11.68;1.98;;;;;;;3.77;100.00;99875.34;10541961;28;20052;-58
2021/12/08 07:55:39;;;;;;;8.10;1.83;;;;;;;3.82;100.00;99890.69;10541600;28;20157;-55
2021/12/08 08:00:48;;;;;;;11.57;3.25;;;;;;;3.73;100.00;99884.16;10541453;28;20066;-55
2021/12/08 08:05:53;;;;;;;5.50;1.63;;;;;;;3.66;100.00;99888.75;10541531;28;20055;-56
2021/12/08 08:11:02;;;;;;;5.90;1.65;;;;;;;3.62;100.00;99888.97;10540874;28;20056;-54
2021/12/08 08:16:11;;;;;;;15.93;2.85;;;;;;;3.52;100.00;99884.16;10541279;28;20131;-53
2021/12/08 08:21:18;;;;;;;11.88;2.67;;;;;;;3.63;100.00;99894.09;10540847;28;20090;-55
2021/12/08 08:26:21;;;;;;;11.60;1.92;;;;;;;3.66;100.00;99906.03;10541102;28;20056;-53
2021/12/08 08:31:33;;;;;;;14.50;2.40;;;;;;;3.73;100.00;99912.63;10540199;28;20488;-54
2021/12/08 08:36:39;;;;;;;10.90;3.50;;;;;;;3.88;100.00;99927.53;10540306;28;20048;-53
2021/12/08 08:41:54;;;;;;;15.30;2.15;;;;;;;3.98;100.00;99927.94;10540146;28;20040;-55
2021/12/08 08:47:00;;;;;;;7.32;2.30;;;;;;;3.96;100.00;99939.28;10539791;28;20051;-58
2021/12/08 08:52:03;;;;;;;6.63;2.05;;;;;;;4.01;100.00;99927.81;10538795;28;20048;-57
2021/12/08 08:57:12;;;;;;;7.15;1.92;;;;;;;3.87;100.00;99909.47;10539422;28;20059;-54
2021/12/08 09:02:19;;;;;;;5.82;1.80;;;;;;;4.14;100.00;99929.88;10539964;28;20048;-57
2021/12/08 09:07:26;;;;;;;8.05;2.20;;;;;;;4.24;100.00;99938.91;10539329;28;20403;-57
2021/12/08 09:12:51;;;;;;;7.28;2.08;;;;;;;4.30;100.00;99937.78;10539090;28;20055;-56
2021/12/08 09:18:09;;;;;;;10.18;2.42;;;;;;;4.11;100.00;99946.38;10539001;28;20044;-56
2021/12/08 09:23:15;;;;;;;9.57;2.97;;;;;;;4.15;100.00;99932.38;10539224;28;20061;-54
2021/12/08 09:28:24;;;;;;;6.13;3.00;;;;;;;4.47;100.00;99946.47;10539073;28;20488;-55
2021/12/08 09:33:36;;;;;;;7.78;2.95;;;;;;;4.59;100.00;99959.78;10538760;28;20480;-57
2021/12/08 09:38:49;;;;;;;12.80;3.90;;;;;;;5.62;96.71;99993.81;10537515;28;20123;-57
2021/12/08 09:44:05;;;;;;;6.57;2.60;;;;;;;5.48;94.68;99981.50;10538845;28;20048;-56
2021/12/08 09:49:08;;;;;;;3.70;1.98;;;;;;;5.26;94.73;99976.53;10537595;28;20048;-55
2021/12/08 09:54:12;;;;;;;5.70;2.22;;;;;;;4.74;98.27;99964.28;10538176;28;20052;-54
2021/12/08 09:59:14;;;;;;;2.53;1.48;;;;;;;4.77;98.91;99958.91;10546061;28;20044;-57
2021/12/08 10:04:17;;;;;;;7.60;2.38;;;;;;;5.15;97.52;99971.00;10545893;28;20085;-55
2021/12/08 10:09:20;;;;;;;4.20;1.65;;;;;;;4.71;99.68;99948.84;10527909;28;20396;-55
2021/12/08 10:14:23;;;;;;;3.72;1.95;;;;;;;4.71;97.84;99946.25;10544135;28;20127;-56
2021/12/08 10:19:25;;;;;;;6.40;1.98;;;;;;;4.76;97.58;99923.56;10545330;28;20051;-56
2021/12/08 10:24:29;;;;;;;5.50;2.20;;;;;;;4.78;98.81;99926.06;10543825;28;20050;-56
2021/12/08 10:29:32;;;;;;;7.43;2.13;;;;;;;5.02;99.94;99958.59;10544728;28;20048;-54
2021/12/08 10:34:46;;;;;;;8.23;1.95;;;;;;;4.97;95.14;99605.19;10544713;28;20066;-56
2021/12/08 10:39:52;;;;;;;6.30;2.42;;;;;;;4.97;97.65;99775.56;10543586;28;20555;-52
2021/12/08 10:45:08;;;;;;;7.13;1.98;;;;;;;5.38;95.89;99947.38;10544225;28;20442;-54
2021/12/08 10:55:49;;;;;;;4.55;1.75;;;;;;;5.85;91.81;99955.44;10544159;28;20050;-57
2021/12/08 11:00:52;;;;;;;7.70;1.90;;;;;;;7.05;89.66;99985.50;10542151;28;20389;-57
2021/12/08 11:05:57;;;;;;;6.43;2.60;;;;;;;6.40;87.56;99964.75;10543237;28;20050;-58
2021/12/08 11:11:20;;;;;;;5.32;1.80;;;;;;;5.55;93.33;99927.53;10543728;28;20048;-57
2021/12/08 11:16:32;;;;;;;7.43;2.13;;;;;;;5.56;94.03;100049.50;10541860;28;20040;-57
2021/12/08 11:21:39;;;;;;;4.55;1.90;;;;;;;5.70;93.11;100047.94;10543382;28;20054;-55
2021/12/08 11:26:51;;;;;;;6.18;1.50;;;;;;;5.88;92.57;100039.25;10542946;28;20051;-55
2021/12/08 11:32:05;;;;;;;6.30;1.80;;;;;;;5.90;91.84;100044.38;10543177;28;20083;-54
2021/12/08 11:37:15;;;;;;;8.40;1.77;;;;;;;5.88;90.33;99997.69;10542420;28;20109;-58
2021/12/08 11:42:25;;;;;;;6.13;1.63;;;;;;;5.77;91.61;100021.63;10542342;28;20044;-56
2021/12/08 11:47:33;;;;;;;6.17;1.93;;;;;;;5.89;92.91;100038.34;10542068;28;20090;-57
2021/12/08 11:52:35;;;;;;;8.07;2.10;;;;;;;5.59;92.93;100018.16;10540329;28;20492;-55
2021/12/08 11:57:42;;;;;;;5.25;1.70;;;;;;;5.71;92.21;100027.09;10541430;28;20052;-57
2021/12/08 12:02:59;;;;;;;4.75;2.25;;;;;;;5.68;92.52;100144.16;10541236;28;20044;-57
2021/12/08 12:08:09;;;;;;;8.20;1.83;;;;;;;5.99;90.63;100056.94;10541070;28;20499;-53
2021/12/08 12:13:12;;;;;;;7.68;2.08;;;;;;;5.63;91.41;100054.38;10540904;28;20052;-57
2021/12/08 12:18:17;;;;;;;5.30;1.55;;;;;;;5.88;91.43;100065.22;10540519;28;20117;-54
2021/12/08 12:23:42;;;;;;;7.82;1.83;;;;;;;5.65;91.37;100083.69;10539053;28;20483;-57
2021/12/08 12:29:07;;;;;;;8.57;2.17;;;;;;;5.57;91.83;100084.91;10539207;28;20400;-56
2021/12/08 12:34:29;;;;;;;7.20;2.08;;;;;;;5.59;92.15;100095.22;10540044;28;20052;-56
2021/12/08 12:39:32;;;;;;;4.05;1.90;;;;;;;5.54;92.30;100105.00;10540025;28;20143;-54
2021/12/08 12:44:36;;;;;;;2.22;2.00;;;;;;;5.59;93.00;100103.03;10538899;28;20048;-58
2021/12/08 12:49:45;;;;;;;6.93;2.20;;;;;;;5.51;92.43;100103.38;10540232;28;20048;-56
2021/12/08 12:54:47;;;;;;;8.05;2.35;;;;;;;5.57;92.63;100128.22;10538469;28;20487;-56
2021/12/08 12:59:52;;;;;;;6.00;1.83;;;;;;;5.69;93.27;100103.44;10539941;28;20048;-55
2021/12/08 13:04:56;;;;;;;9.82;2.88;;;;;;;5.97;91.51;100100.38;10539234;28;20052;-54
2021/12/08 13:10:13;;;;;;;6.03;2.30;;;;;;;5.76;93.69;100104.81;10539566;28;20048;-54
2021/12/08 13:15:21;;;;;;;8.25;2.22;;;;;;;5.62;92.88;100109.84;10539524;28;20052;-56
2021/12/08 13:20:26;;;;;;;7.43;2.10;;;;;;;5.61;92.80;100118.53;10539625;28;20403;-53
2021/12/08 13:31:06;;;;;;;5.10;2.08;;;;;;;5.71;92.80;100128.41;10543909;28;20052;-56
2021/12/08 13:36:21;;;;;;;5.40;1.73;;;;;;;5.72;91.88;100137.06;10547179;28;20105;-53
2021/12/08 13:41:26;;;;;;;5.90;1.80;;;;;;;5.76;93.70;100143.78;10546851;28;20040;-57
2021/12/08 13:46:37;;;;;;;8.15;2.60;;;;;;;5.39;91.68;100133.34;10546671;28;20484;-58
2021/12/08 13:51:40;;;;;;;3.97;1.85;;;;;;;5.54;92.69;100141.34;10546543;28;20074;-55
2021/12/08 13:56:42;;;;;;;6.22;1.73;;;;;;;5.43;93.61;100139.28;10546487;28;20109;-54
2021/12/08 14:01:44;;;;;;;8.90;2.20;;;;;;;5.29;92.65;100142.47;10546439;28;20048;-55
2021/12/08 14:06:47;;;;;;;7.10;1.88;;;;;;;5.26;93.14;100137.47;10545984;28;20044;-54
2021/12/08 14:11:51;;;;;;;5.90;2.00;;;;;;;5.13;95.50;100137.16;10545661;28;20056;-57
2021/12/08 14:16:53;;;;;;;4.68;1.70;;;;;;;5.07;94.37;100134.84;10546079;28;20044;-57
2021/12/08 14:22:00;;;;;;;7.30;2.35;;;;;;;4.90;94.71;100147.72;10545240;28;20166;-53
2021/12/08 14:27:03;;;;;;;4.88;1.73;;;;;;;4.86;96.16;100149.63;10545030;28;20103;-51
2021/12/08 14:32:05;;;;;;;7.13;2.13;;;;;;;4.81;96.67;100142.03;10543679;28;20063;-57
2021/12/08 14:37:14;;;;;;;5.35;1.63;;;;;;;4.57;97.92;100145.69;10544537;28;20408;-53
2021/12/08 14:42:21;;;;;;;5.15;2.35;;;;;;;4.68;96.46;100168.56;10543651;28;20492;-58
2021/12/08 14:47:28;;;;;;;10.70;2.53;;;;;;;4.68;96.91;100174.59;10543777;28;20044;-53
2021/12/08 14:52:33;;;;;;;8.60;2.53;;;;;;;4.50;98.00;100180.56;10544002;28;20165;-55
2021/12/08 14:57:40;;;;;;;12.20;2.72;;;;;;;4.35;98.68;100176.84;10543990;28;20380;-55
2021/12/08 15:02:57;;;;;;;3.88;2.13;;;;;;;4.40;99.50;100178.34;10544433;28;20066;-56
2021/12/08 15:08:21;;;;;;;4.75;2.15;;;;;;;4.28;99.92;100208.19;10543583;28;20044;-56
2021/12/08 15:13:30;;;;;;;10.38;2.92;;;;;;;4.16;100.00;100268.28;10543120;28;20051;-57
2021/12/08 15:18:32;;;;;;;7.00;3.00;;;;;;;4.03;100.00;100242.00;10543064;28;20075;-51
2021/12/08 15:23:47;;;;;;;9.77;2.72;;;;;;;3.93;100.00;100232.91;10543104;28;20048;-55
2021/12/08 15:28:49;;;;;;;7.65;3.50;;;;;;;4.12;100.00;100233.06;10541510;28;20047;-59
2021/12/08 15:33:52;;;;;;;9.15;3.42;;;;;;;3.79;100.00;100241.22;10542265;28;20055;-54
2021/12/08 15:38:56;;;;;;;6.25;2.38;;;;;;;3.75;100.00;100237.06;10542445;28;20056;-54
2021/12/08 15:44:12;;;;;;;7.82;2.38;;;;;;;3.65;100.00;100240.91;10541753;28;20399;-58
2021/12/08 15:49:23;;;;;;;9.15;3.00;;;;;;;3.52;100.00;100237.94;10541836;28;20058;-57
2021/12/08 15:54:25;;;;;;;10.93;4.23;;;;;;;3.43;100.00;100244.31;10540623;28;20052;-55
2021/12/08 15:59:31;;;;;;;10.73;3.40;;;;;;;3.42;100.00;100240.00;10541418;28;20123;-56
2021/12/08 16:05:04;;;;;;;6.68;3.20;;;;;;;3.43;100.00;100240.84;10541306;28;20048;-56
2021/12/08 16:10:24;;;;;;;5.25;2.25;;;;;;;2.89;100.00;100242.75;10541073;28;20135;-57
2021/12/08 16:15:59;;;;;;;5.90;2.95;;;;;;;3.08;100.00;100256.75;10541287;28;20411;-59
2021/12/08 16:21:02;;;;;;;14.68;3.88;;;;;;;2.71;100.00;100255.41;10533023;28;20047;-55
2021/12/08 16:26:04;;;;;;;7.43;3.22;;;;;;;2.41;100.00;100252.94;10540612;28;20040;-55
2021/12/08 16:31:08;;;;;;;5.68;3.17;;;;;;;2.41;100.00;100260.69;10540147;28;20083;-55
2021/12/08 16:36:10;;;;;;;6.00;3.42;;;;;;;2.54;100.00;100268.91;10540369;28;20052;-54
2021/12/08 16:46:34;;;;;;;14.37;6.10;;;;;;;2.47;100.00;100279.47;10539869;28;20495;-58
2021/12/08 16:51:37;;;;;;;12.23;5.47;;;;;;;2.14;100.00;100277.91;10539715;28;20075;-56
2021/12/08 16:56:40;;;;;;;12.55;5.85;;;;;;;1.99;100.00;100280.97;10540539;28;20044;-57
2021/12/08 17:01:43;;;;;;;10.98;4.10;;;;;;;2.02;100.00;100286.88;10539901;28;20048;-55
2021/12/08 17:06:46;;;;;;;11.20;3.85;;;;;;;1.96;100.00;100289.63;10545705;28;20509;-55
2021/12/08 17:11:48;;;;;;;10.52;4.88;;;;;;;1.83;100.00;100281.44;10548318;28;20058;-57
2021/12/08 17:16:51;;;;;;;11.95;4.95;;;;;;;2.18;100.00;100291.56;10546685;28;20044;-55
2021/12/08 17:21:53;;;;;;;13.75;5.53;;;;;;;2.07;100.00;100286.75;10547532;28;20044;-56
2021/12/08 17:26:56;;;;;;;15.27;5.63;;;;;;;1.75;100.00;100292.84;10547530;28;20139;-56
2021/12/08 17:31:58;;;;;;;11.20;4.70;;;;;;;1.74;100.00;100297.16;10546782;28;20522;-57
2021/12/08 17:37:02;;;;;;;12.60;4.38;;;;;;;1.75;100.00;100292.84;10547140;28;20451;-54
2021/12/08 17:42:05;;;;;;;9.60;4.75;;;;;;;1.86;100.00;100304.53;10546789;28;20058;-56
2021/12/08 17:47:07;;;;;;;12.00;4.30;;;;;;;1.96;100.00;100318.03;10546092;28;20066;-57
2021/12/08 17:52:11;;;;;;;11.65;4.82;;;;;;;1.45;100.00;100313.47;10546310;28;20079;-54
2021/12/08 17:57:13;;;;;;;16.02;3.80;;;;;;;1.53;100.00;100310.69;10546886;28;20044;-54
2021/12/08 18:02:19;;;;;;;10.80;5.80;;;;;;;1.41;100.00;100301.53;10545753;28;20496;-53
2021/12/08 18:07:21;;;;;;;10.68;5.10;;;;;;;1.74;100.00;100316.97;10545960;28;20070;-55
2021/12/08 18:12:23;;;;;;;9.00;4.30;;;;;;;1.39;100.00;100311.91;10545898;28;20134;-56
2021/12/08 18:17:26;;;;;;;9.23;4.53;;;;;;;1.48;100.00;100326.31;10544618;28;20040;-57
2021/12/08 18:22:41;;;;;;;10.82;5.13;;;;;;;1.31;100.00;100319.00;10545470;28;20048;-55
2021/12/08 18:27:44;;;;;;;7.38;4.85;;;;;;;1.10;100.00;100318.69;10545238;28;20044;-58
2021/12/08 18:32:47;;;;;;;11.93;5.47;;;;;;;1.43;100.00;100330.72;10543651;28;20055;-59
2021/12/08 18:37:49;;;;;;;9.88;3.92;;;;;;;1.92;100.00;100347.44;10544645;28;20048;-57
2021/12/08 18:42:52;;;;;;;8.38;3.83;;;;;;;1.48;100.00;100345.19;10543423;28;20091;-56
2021/12/08 18:47:54;;;;;;;11.68;4.22;;;;;;;1.73;100.00;100360.03;10544752;28;20044;-56
2021/12/08 18:52:57;;;;;;;8.77;3.80;;;;;;;1.99;100.00;100364.44;10543896;28;20385;-56
2021/12/08 18:57:59;;;;;;;8.27;3.15;;;;;;;2.11;100.00;100377.88;10544076;28;20048;-55
2021/12/08 19:03:02;;;;;;;12.20;4.30;;;;;;;1.95;100.00;100377.47;10543614;28;20044;-58
2021/12/08 19:08:05;;;;;;;8.63;3.00;;;;;;;2.29;100.00;100373.94;10544086;28;20040;-57
2021/12/08 19:13:07;;;;;;;9.57;3.70;;;;;;;2.11;100.00;100376.13;10543177;28;20492;-56
2021/12/08 19:18:10;;;;;;;9.95;3.47;;;;;;;1.71;100.00;100373.84;10543163;28;20503;-57
2021/12/08 19:23:13;;;;;;;7.65;3.83;;;;;;;2.16;100.00;100394.09;10542850;28;20070;-54
2021/12/08 19:28:15;;;;;;;6.13;4.18;;;;;;;1.73;100.00;100387.53;10542515;28;20051;-55
2021/12/08 19:33:18;;;;;;;9.40;3.55;;;;;;;1.76;100.00;100393.47;10542327;28;20055;-58
2021/12/08 19:38:21;;;;;;;5.47;3.80;;;;;;;1.30;100.00;100389.53;10542052;28;20048;-55
2021/12/08 19:43:24;;;;;;;9.48;4.68;;;;;;;1.25;100.00;100393.97;10541706;28;20052;-54
2021/12/08 19:48:26;;;;;;;6.13;3.95;;;;;;;1.26;100.00;100396.50;10542716;28;20048;-55
2021/12/08 19:53:28;;;;;;;10.25;4.38;;;;;;;1.14;100.00;100399.38;10541703;28;20051;-55
2021/12/08 19:58:31;;;;;;;11.63;4.90;;;;;;;1.46;100.00;100413.19;10541911;28;20052;-58
2021/12/08 20:03:35;;;;;;;11.18;4.95;;;;;;;1.07;100.00;100409.00;10541166;28;20058;-58
2021/12/08 20:08:38;;;;;;;9.52;4.57;;;;;;;1.33;100.00;100420.41;10541275;28;20048;-52
2021/12/08 20:13:41;;;;;;;14.82;5.53;;;;;;;1.16;100.00;100423.41;10541165;28;20050;-57
2021/12/08 20:18:44;;;;;;;8.27;4.78;;;;;;;1.34;100.00;100440.16;10540741;28;20055;-54
2021/12/08 20:23:46;;;;;;;8.80;5.20;;;;;;;1.45;100.00;100433.00;10540385;28;20052;-58
2021/12/08 20:28:51;;;;;;;11.48;5.40;;;;;;;1.20;100.00;100434.50;10540497;28;20396;-55
2021/12/08 20:33:55;;;;;;;15.30;5.45;;;;;;;1.17;100.00;100432.00;10540383;28;20139;-53
2021/12/08 20:38:58;;;;;;;16.88;6.15;;;;;;;1.23;100.00;100442.16;10539383;28;20052;-58
2021/12/08 20:44:02;;;;;;;11.85;5.65;;;;;;;1.10;100.00;100447.59;10539980;28;20052;-53
2021/12/08 20:49:05;;;;;;;18.95;6.32;;;;;;;0.95;100.00;100442.81;10540241;28;20074;-55
2021/12/08 20:54:08;;;;;;;19.00;7.30;;;;;;;0.87;100.00;100442.13;10539586;28;20430;-53
2021/12/08 20:59:15;;;;;;;14.75;5.72;;;;;;;1.32;100.00;100446.25;10540128;28;20056;-57
2021/12/08 21:04:18;;;;;;;16.52;6.53;;;;;;;1.30;100.00;100451.44;10539432;28;20052;-55
2021/12/08 21:09:21;;;;;;;7.97;6.22;;;;;;;1.08;100.00;100444.22;10539590;28;20040;-55
2021/12/08 21:14:26;;;;;;;9.77;5.22;;;;;;;1.04;100.00;100439.16;10539382;28;20055;-55
2021/12/08 21:19:28;;;;;;;14.10;5.13;;;;;;;1.01;100.00;100442.69;10539382;28;20048;-56
2021/12/08 21:24:31;;;;;;;13.60;6.30;;;;;;;0.91;100.00;100443.78;10539156;28;20048;-51
2021/12/08 21:29:33;;;;;;;14.73;6.70;;;;;;;0.78;100.00;100443.19;10538907;28;20515;-56
2021/12/08 21:34:37;;;;;;;12.48;6.65;;;;;;;1.46;100.00;100451.91;10539014;28;20126;-54
2021/12/08 21:39:41;;;;;;;10.20;5.50;;;;;;;1.23;100.00;100449.91;10539113;28;20062;-56
2021/12/08 21:44:43;;;;;;;19.70;6.28;;;;;;;1.54;100.00;100467.19;10538646;28;20073;-57
2021/12/08 21:49:45;;;;;;;13.88;5.35;;;;;;;1.21;100.00;100457.69;10539356;28;20074;-57
2021/12/08 21:54:48;;;;;;;8.55;5.15;;;;;;;1.35;100.00;100461.66;10546770;28;20054;-51
2021/12/08 21:59:50;;;;;;;6.90;4.72;;;;;;;1.48;100.00;100469.03;10546573;28;20052;-57
2021/12/08 22:04:53;;;;;;;10.13;5.28;;;;;;;1.28;100.00;100468.69;10544833;28;20044;-56
2021/12/08 22:09:55;;;;;;;14.02;6.82;;;;;;;1.10;100.00;100468.22;10546142;28;20040;-56
2021/12/08 22:14:57;;;;;;;17.05;5.85;;;;;;;1.17;100.00;100468.94;10545616;28;20426;-53
2021/12/08 22:20:00;;;;;;;16.63;6.72;;;;;;;0.90;100.00;100471.25;10545654;28;20055;-58
2021/12/08 22:25:03;;;;;;;13.13;5.78;;;;;;;1.00;100.00;100477.06;10545511;28;20055;-58
2021/12/08 22:30:09;;;;;;;14.52;6.30;;;;;;;1.04;100.00;100483.88;10545443;28;20044;-57
2021/12/08 22:35:13;;;;;;;14.07;6.72;;;;;;;0.73;100.00;100481.94;10544913;28;20395;-54
2021/12/08 22:40:18;;;;;;;10.32;6.32;;;;;;;1.01;100.00;100493.38;10545188;28;20403;-56
2021/12/08 22:45:21;;;;;;;13.40;6.07;;;;;;;1.13;100.00;100498.28;10544424;28;20040;-53
2021/12/08 22:50:27;;;;;;;15.00;6.53;;;;;;;1.06;100.00;100507.00;10543167;28;20421;-56
2021/12/08 22:55:30;;;;;;;18.50;6.75;;;;;;;0.83;100.00;100503.22;10544432;28;20055;-55
2021/12/08 23:00:35;;;;;;;11.65;5.35;;;;;;;0.79;100.00;100506.75;10543943;28;20070;-56
2021/12/08 23:05:38;;;;;;;15.55;6.22;;;;;;;0.69;100.00;100506.09;10543247;28;20051;-53
2021/12/08 23:10:43;;;;;;;6.20;5.50;;;;;;;0.65;100.00;100501.03;10542536;28;20043;-54
2021/12/08 23:15:47;;;;;;;11.85;6.78;;;;;;;0.54;100.00;100506.44;10544097;28;20071;-58
2021/12/08 23:20:59;;;;;;;17.42;7.13;;;;;;;0.61;100.00;100507.16;10543680;28;20141;-56
2021/12/08 23:26:02;;;;;;;14.65;7.88;;;;;;;0.84;100.00;100517.81;10542890;28;20048;-58
2021/12/08 23:31:05;;;;;;;12.25;6.88;;;;;;;0.82;100.00;100516.13;10542730;28;20051;-59
2021/12/08 23:36:10;;;;;;;15.35;6.43;;;;;;;0.49;100.00;100510.84;10542359;28;20056;-58
2021/12/08 23:41:19;;;;;;;16.35;6.05;;;;;;;0.38;100.00;100512.78;10542892;28;20043;-57
2021/12/08 23:46:21;;;;;;;13.38;7.05;;;;;;;0.59;100.00;100514.91;10542056;28;20052;-56
2021/12/08 23:51:24;;;;;;;11.50;6.68;;;;;;;0.54;100.00;100504.69;10541943;28;20060;-56
2021/12/08 23:56:30;;;;;;;11.30;6.30;;;;;;;0.41;100.00;100510.97;10542018;28;20044;-54
